sensor_id;sensor_type;location;lat;lon;timestamp;temperature;humidity
16485;DHT22;8353;47.856;12.344;2023-05-10T00:02:31;16.80;99.90
16485;DHT22;8353;47.856;12.344;2023-05-10T00:05:17;16.80;99.90
16485;DHT22;8353;47.856;12.344;2023-05-10T00:08:04;16.70;99.90
16485;DHT22;8353;47.856;12.344;2023-05-10T00:10:53;16.70;99.90
16485;DHT22;8353;47.856;12.344;2023-05-10T00:13:40;16.70;99.90
16485;DHT22;8353;47.856;12.344;2023-05-10T00:16:27;16.70;99.90
16485;DHT22;8353;47.856;12.344;2023-05-10T00:19:13;16.70;99.90
16485;DHT22;8353;47.856;12.344;2023-05-10T00:22:00;16.60;99.90
16485;DHT22;8353;47.856;12.344;2023-05-10T00:24:47;16.70;99.90
16485;DHT22;8353;47.856;12.344;2023-05-10T00:27:35;16.90;99.90
16485;DHT22;8353;47.856;12.344;2023-05-10T00:30:22;16.90;99.90
16485;DHT22;8353;47.856;12.344;2023-05-10T00:33:09;17.10;99.90
16485;DHT22;8353;47.856;12.344;2023-05-10T00:35:57;17.20;99.90
16485;DHT22;8353;47.856;12.344;2023-05-10T00:38:43;17.20;99.90
16485;DHT22;8353;47.856;12.344;2023-05-10T00:41:31;17.20;99.90
16485;DHT22;8353;47.856;12.344;2023-05-10T00:44:19;17.30;99.90
16485;DHT22;8353;47.856;12.344;2023-05-10T00:47:06;17.40;99.90
16485;DHT22;8353;47.856;12.344;2023-05-10T00:49:53;17.30;99.90
16485;DHT22;8353;47.856;12.344;2023-05-10T00:52:42;17.40;99.90
16485;DHT22;8353;47.856;12.344;2023-05-10T00:55:29;17.50;99.90
16485;DHT22;8353;47.856;12.344;2023-05-10T00:58:16;17.50;99.90
16485;DHT22;8353;47.856;12.344;2023-05-10T01:01:05;17.40;99.90
16485;DHT22;8353;47.856;12.344;2023-05-10T01:03:52;17.20;99.90
16485;DHT22;8353;47.856;12.344;2023-05-10T01:06:39;17.20;99.90
16485;DHT22;8353;47.856;12.344;2023-05-10T01:09:26;17.20;99.90
16485;DHT22;8353;47.856;12.344;2023-05-10T01:12:14;17.30;99.90
16485;DHT22;8353;47.856;12.344;2023-05-10T01:15:01;17.30;99.90
16485;DHT22;8353;47.856;12.344;2023-05-10T01:17:49;17.30;99.90
16485;DHT22;8353;47.856;12.344;2023-05-10T01:20:40;17.10;99.90
16485;DHT22;8353;47.856;12.344;2023-05-10T01:23:53;17.20;99.90
16485;DHT22;8353;47.856;12.344;2023-05-10T01:27:07;17.20;99.90
16485;DHT22;8353;47.856;12.344;2023-05-10T01:30:28;17.10;99.90
16485;DHT22;8353;47.856;12.344;2023-05-10T01:33:23;17.20;99.90
16485;DHT22;8353;47.856;12.344;2023-05-10T01:36:20;17.20;99.90
16485;DHT22;8353;47.856;12.344;2023-05-10T01:39:15;17.30;99.90
16485;DHT22;8353;47.856;12.344;2023-05-10T01:42:08;17.40;99.90
16485;DHT22;8353;47.856;12.344;2023-05-10T01:44:59;17.30;99.90
16485;DHT22;8353;47.856;12.344;2023-05-10T01:47:54;17.20;99.90
16485;DHT22;8353;47.856;12.344;2023-05-10T01:50:46;17.30;99.90
16485;DHT22;8353;47.856;12.344;2023-05-10T01:53:35;17.20;99.90
16485;DHT22;8353;47.856;12.344;2023-05-10T01:56:26;17.20;99.90
16485;DHT22;8353;47.856;12.344;2023-05-10T01:59:18;17.20;99.90
16485;DHT22;8353;47.856;12.344;2023-05-10T02:02:06;17.10;99.90
16485;DHT22;8353;47.856;12.344;2023-05-10T02:04:54;17.20;99.90
16485;DHT22;8353;47.856;12.344;2023-05-10T02:07:43;17.20;99.90
16485;DHT22;8353;47.856;12.344;2023-05-10T02:10:32;17.10;99.90
16485;DHT22;8353;47.856;12.344;2023-05-10T02:13:21;17.10;99.90
16485;DHT22;8353;47.856;12.344;2023-05-10T02:16:10;17.20;99.90
16485;DHT22;8353;47.856;12.344;2023-05-10T02:18:59;17.30;99.90
16485;DHT22;8353;47.856;12.344;2023-05-10T02:21:48;17.20;99.90
16485;DHT22;8353;47.856;12.344;2023-05-10T02:24:38;17.20;99.90
16485;DHT22;8353;47.856;12.344;2023-05-10T02:27:27;17.00;99.90
16485;DHT22;8353;47.856;12.344;2023-05-10T02:30:15;17.00;99.90
16485;DHT22;8353;47.856;12.344;2023-05-10T02:33:04;17.00;99.90
16485;DHT22;8353;47.856;12.344;2023-05-10T02:35:52;17.00;99.90
16485;DHT22;8353;47.856;12.344;2023-05-10T02:38:40;16.90;99.90
16485;DHT22;8353;47.856;12.344;2023-05-10T02:41:31;17.00;99.90
16485;DHT22;8353;47.856;12.344;2023-05-10T02:44:19;16.90;99.90
16485;DHT22;8353;47.856;12.344;2023-05-10T02:47:06;17.00;99.90
16485;DHT22;8353;47.856;12.344;2023-05-10T02:49:53;17.10;99.90
16485;DHT22;8353;47.856;12.344;2023-05-10T02:52:43;17.10;99.90
16485;DHT22;8353;47.856;12.344;2023-05-10T02:55:35;16.90;99.90
16485;DHT22;8353;47.856;12.344;2023-05-10T02:58:24;16.80;99.90
16485;DHT22;8353;47.856;12.344;2023-05-10T03:01:12;16.70;99.90
16485;DHT22;8353;47.856;12.344;2023-05-10T03:04:02;16.50;99.90
16485;DHT22;8353;47.856;12.344;2023-05-10T03:06:49;16.50;99.90
16485;DHT22;8353;47.856;12.344;2023-05-10T03:09:35;16.50;99.90
16485;DHT22;8353;47.856;12.344;2023-05-10T03:12:27;16.50;99.90
16485;DHT22;8353;47.856;12.344;2023-05-10T03:15:25;16.50;99.90
16485;DHT22;8353;47.856;12.344;2023-05-10T03:18:20;16.50;99.90
16485;DHT22;8353;47.856;12.344;2023-05-10T03:21:08;16.60;99.90
16485;DHT22;8353;47.856;12.344;2023-05-10T03:23:59;16.70;99.90
16485;DHT22;8353;47.856;12.344;2023-05-10T03:26:49;16.60;99.90
16485;DHT22;8353;47.856;12.344;2023-05-10T03:29:36;16.70;99.90
16485;DHT22;8353;47.856;12.344;2023-05-10T03:32:26;16.70;99.90
16485;DHT22;8353;47.856;12.344;2023-05-10T03:35:13;16.60;99.90
16485;DHT22;8353;47.856;12.344;2023-05-10T03:38:00;16.60;99.90
16485;DHT22;8353;47.856;12.344;2023-05-10T03:40:47;16.60;99.90
16485;DHT22;8353;47.856;12.344;2023-05-10T03:43:34;16.60;99.90
16485;DHT22;8353;47.856;12.344;2023-05-10T03:46:20;16.70;99.90
16485;DHT22;8353;47.856;12.344;2023-05-10T03:49:09;16.70;99.90
16485;DHT22;8353;47.856;12.344;2023-05-10T03:51:55;16.60;99.90
16485;DHT22;8353;47.856;12.344;2023-05-10T03:54:42;16.60;99.90
16485;DHT22;8353;47.856;12.344;2023-05-10T03:57:29;16.70;99.90
16485;DHT22;8353;47.856;12.344;2023-05-10T04:00:16;16.70;99.90
16485;DHT22;8353;47.856;12.344;2023-05-10T04:03:03;16.50;99.90
16485;DHT22;8353;47.856;12.344;2023-05-10T04:05:58;16.40;99.90
16485;DHT22;8353;47.856;12.344;2023-05-10T04:08:45;16.30;99.90
16485;DHT22;8353;47.856;12.344;2023-05-10T04:11:32;16.20;99.90
16485;DHT22;8353;47.856;12.344;2023-05-10T04:14:19;16.00;99.90
16485;DHT22;8353;47.856;12.344;2023-05-10T04:17:05;16.10;99.90
16485;DHT22;8353;47.856;12.344;2023-05-10T04:19:52;16.10;99.90
16485;DHT22;8353;47.856;12.344;2023-05-10T04:22:41;16.10;99.90
16485;DHT22;8353;47.856;12.344;2023-05-10T04:25:28;16.10;99.90
16485;DHT22;8353;47.856;12.344;2023-05-10T04:28:15;16.20;99.90
16485;DHT22;8353;47.856;12.344;2023-05-10T04:31:02;16.20;99.90
16485;DHT22;8353;47.856;12.344;2023-05-10T04:33:49;16.30;99.90
16485;DHT22;8353;47.856;12.344;2023-05-10T04:36:36;16.40;99.90
16485;DHT22;8353;47.856;12.344;2023-05-10T04:39:24;16.40;99.90
16485;DHT22;8353;47.856;12.344;2023-05-10T04:42:11;16.40;99.90
16485;DHT22;8353;47.856;12.344;2023-05-10T04:45:00;16.40;99.90
16485;DHT22;8353;47.856;12.344;2023-05-10T04:47:50;16.40;99.90
16485;DHT22;8353;47.856;12.344;2023-05-10T04:50:37;16.50;99.90
16485;DHT22;8353;47.856;12.344;2023-05-10T04:53:24;16.40;99.90
16485;DHT22;8353;47.856;12.344;2023-05-10T04:56:12;16.40;99.90
16485;DHT22;8353;47.856;12.344;2023-05-10T04:58:58;16.30;99.90
16485;DHT22;8353;47.856;12.344;2023-05-10T05:01:45;16.40;99.90
16485;DHT22;8353;47.856;12.344;2023-05-10T05:04:32;16.40;99.90
16485;DHT22;8353;47.856;12.344;2023-05-10T05:07:19;16.30;99.90
16485;DHT22;8353;47.856;12.344;2023-05-10T05:10:07;16.30;99.90
16485;DHT22;8353;47.856;12.344;2023-05-10T05:12:55;16.40;99.90
16485;DHT22;8353;47.856;12.344;2023-05-10T05:15:42;16.30;99.90
16485;DHT22;8353;47.856;12.344;2023-05-10T05:18:29;16.30;99.90
16485;DHT22;8353;47.856;12.344;2023-05-10T05:21:16;16.20;99.90
16485;DHT22;8353;47.856;12.344;2023-05-10T05:24:04;16.20;99.90
16485;DHT22;8353;47.856;12.344;2023-05-10T05:26:51;16.20;99.90
16485;DHT22;8353;47.856;12.344;2023-05-10T05:29:39;16.30;99.90
16485;DHT22;8353;47.856;12.344;2023-05-10T05:32:30;16.20;99.90
16485;DHT22;8353;47.856;12.344;2023-05-10T05:35:17;16.20;99.90
16485;DHT22;8353;47.856;12.344;2023-05-10T05:38:04;16.10;99.90
16485;DHT22;8353;47.856;12.344;2023-05-10T05:40:51;16.10;99.90
16485;DHT22;8353;47.856;12.344;2023-05-10T05:43:38;16.20;99.90
16485;DHT22;8353;47.856;12.344;2023-05-10T05:46:26;16.10;99.90
16485;DHT22;8353;47.856;12.344;2023-05-10T05:49:13;16.10;99.90
16485;DHT22;8353;47.856;12.344;2023-05-10T05:52:00;16.10;99.90
16485;DHT22;8353;47.856;12.344;2023-05-10T05:54:47;16.00;99.90
16485;DHT22;8353;47.856;12.344;2023-05-10T05:57:34;16.10;99.90
16485;DHT22;8353;47.856;12.344;2023-05-10T06:00:20;16.10;99.90
16485;DHT22;8353;47.856;12.344;2023-05-10T06:03:09;16.20;99.90
16485;DHT22;8353;47.856;12.344;2023-05-10T06:05:56;16.20;99.90
16485;DHT22;8353;47.856;12.344;2023-05-10T06:08:43;16.20;99.90
16485;DHT22;8353;47.856;12.344;2023-05-10T06:11:29;16.20;99.90
16485;DHT22;8353;47.856;12.344;2023-05-10T06:14:20;16.10;99.90
16485;DHT22;8353;47.856;12.344;2023-05-10T06:17:07;16.00;99.90
16485;DHT22;8353;47.856;12.344;2023-05-10T06:19:55;16.00;99.90
16485;DHT22;8353;47.856;12.344;2023-05-10T06:22:43;16.10;99.90
16485;DHT22;8353;47.856;12.344;2023-05-10T06:25:30;16.00;99.90
16485;DHT22;8353;47.856;12.344;2023-05-10T06:28:21;15.90;99.90
16485;DHT22;8353;47.856;12.344;2023-05-10T06:31:08;16.00;99.90
16485;DHT22;8353;47.856;12.344;2023-05-10T06:33:56;15.90;99.90
16485;DHT22;8353;47.856;12.344;2023-05-10T06:36:45;16.00;99.90
16485;DHT22;8353;47.856;12.344;2023-05-10T06:39:32;15.90;99.90
16485;DHT22;8353;47.856;12.344;2023-05-10T06:42:19;15.90;99.90
16485;DHT22;8353;47.856;12.344;2023-05-10T06:45:07;15.90;99.90
16485;DHT22;8353;47.856;12.344;2023-05-10T06:47:57;15.90;99.90
16485;DHT22;8353;47.856;12.344;2023-05-10T06:50:44;15.80;99.90
16485;DHT22;8353;47.856;12.344;2023-05-10T06:53:32;15.80;99.90
16485;DHT22;8353;47.856;12.344;2023-05-10T06:56:19;15.70;99.90
16485;DHT22;8353;47.856;12.344;2023-05-10T06:59:11;15.70;99.90
16485;DHT22;8353;47.856;12.344;2023-05-10T07:01:58;15.60;99.90
16485;DHT22;8353;47.856;12.344;2023-05-10T07:04:47;15.60;99.90
16485;DHT22;8353;47.856;12.344;2023-05-10T07:07:34;15.70;99.90
16485;DHT22;8353;47.856;12.344;2023-05-10T07:10:22;15.60;99.90
16485;DHT22;8353;47.856;12.344;2023-05-10T07:13:13;15.50;99.90
16485;DHT22;8353;47.856;12.344;2023-05-10T07:16:00;15.50;99.90
16485;DHT22;8353;47.856;12.344;2023-05-10T07:18:47;15.60;99.90
16485;DHT22;8353;47.856;12.344;2023-05-10T07:21:36;15.70;99.90
16485;DHT22;8353;47.856;12.344;2023-05-10T07:24:23;15.40;99.90
16485;DHT22;8353;47.856;12.344;2023-05-10T07:27:12;15.10;99.90
16485;DHT22;8353;47.856;12.344;2023-05-10T07:29:59;15.10;99.90
16485;DHT22;8353;47.856;12.344;2023-05-10T07:32:48;15.20;99.90
16485;DHT22;8353;47.856;12.344;2023-05-10T07:35:34;15.20;99.90
16485;DHT22;8353;47.856;12.344;2023-05-10T07:38:21;15.20;99.90
16485;DHT22;8353;47.856;12.344;2023-05-10T07:41:09;15.20;99.90
16485;DHT22;8353;47.856;12.344;2023-05-10T07:43:57;15.20;99.90
16485;DHT22;8353;47.856;12.344;2023-05-10T07:46:44;15.40;99.90
16485;DHT22;8353;47.856;12.344;2023-05-10T07:49:34;15.40;99.90
16485;DHT22;8353;47.856;12.344;2023-05-10T07:52:21;15.40;99.90
16485;DHT22;8353;47.856;12.344;2023-05-10T07:55:09;15.50;99.90
16485;DHT22;8353;47.856;12.344;2023-05-10T07:57:55;15.50;99.90
16485;DHT22;8353;47.856;12.344;2023-05-10T08:00:44;15.50;99.90
16485;DHT22;8353;47.856;12.344;2023-05-10T08:03:30;15.60;99.90
16485;DHT22;8353;47.856;12.344;2023-05-10T08:06:18;15.60;99.90
16485;DHT22;8353;47.856;12.344;2023-05-10T08:09:05;15.60;99.90
16485;DHT22;8353;47.856;12.344;2023-05-10T08:11:52;15.40;99.90
16485;DHT22;8353;47.856;12.344;2023-05-10T08:14:38;15.50;99.90
16485;DHT22;8353;47.856;12.344;2023-05-10T08:17:26;15.60;99.90
16485;DHT22;8353;47.856;12.344;2023-05-10T08:20:13;15.60;99.90
16485;DHT22;8353;47.856;12.344;2023-05-10T08:23:02;15.80;99.90
16485;DHT22;8353;47.856;12.344;2023-05-10T08:25:48;15.90;99.90
16485;DHT22;8353;47.856;12.344;2023-05-10T08:28:35;16.10;99.90
16485;DHT22;8353;47.856;12.344;2023-05-10T08:31:22;16.20;99.90
16485;DHT22;8353;47.856;12.344;2023-05-10T08:34:10;16.20;99.90
16485;DHT22;8353;47.856;12.344;2023-05-10T08:36:57;16.20;99.90
16485;DHT22;8353;47.856;12.344;2023-05-10T08:39:44;16.20;99.90
16485;DHT22;8353;47.856;12.344;2023-05-10T08:42:34;16.30;99.90
16485;DHT22;8353;47.856;12.344;2023-05-10T08:45:23;16.40;99.90
16485;DHT22;8353;47.856;12.344;2023-05-10T08:48:11;16.70;99.90
16485;DHT22;8353;47.856;12.344;2023-05-10T08:51:00;16.90;99.90
16485;DHT22;8353;47.856;12.344;2023-05-10T08:53:48;16.90;99.90
16485;DHT22;8353;47.856;12.344;2023-05-10T08:56:35;17.00;99.90
16485;DHT22;8353;47.856;12.344;2023-05-10T08:59:24;17.00;99.90
16485;DHT22;8353;47.856;12.344;2023-05-10T09:02:11;16.90;99.90
16485;DHT22;8353;47.856;12.344;2023-05-10T09:04:59;17.00;99.90
16485;DHT22;8353;47.856;12.344;2023-05-10T09:07:47;17.00;99.90
16485;DHT22;8353;47.856;12.344;2023-05-10T09:10:35;17.00;99.90
16485;DHT22;8353;47.856;12.344;2023-05-10T09:13:22;17.20;99.90
16485;DHT22;8353;47.856;12.344;2023-05-10T09:16:09;17.20;99.90
16485;DHT22;8353;47.856;12.344;2023-05-10T09:18:56;17.20;99.90
16485;DHT22;8353;47.856;12.344;2023-05-10T09:21:43;17.30;99.90
16485;DHT22;8353;47.856;12.344;2023-05-10T09:24:31;17.50;99.90
16485;DHT22;8353;47.856;12.344;2023-05-10T09:27:26;17.60;99.90
16485;DHT22;8353;47.856;12.344;2023-05-10T09:30:16;17.60;99.90
16485;DHT22;8353;47.856;12.344;2023-05-10T09:33:03;17.50;99.90
16485;DHT22;8353;47.856;12.344;2023-05-10T09:35:52;17.60;99.90
16485;DHT22;8353;47.856;12.344;2023-05-10T09:38:46;17.60;99.90
16485;DHT22;8353;47.856;12.344;2023-05-10T09:41:34;17.60;99.90
16485;DHT22;8353;47.856;12.344;2023-05-10T09:44:21;17.60;99.90
16485;DHT22;8353;47.856;12.344;2023-05-10T09:47:08;17.60;99.90
16485;DHT22;8353;47.856;12.344;2023-05-10T09:49:55;17.60;99.90
16485;DHT22;8353;47.856;12.344;2023-05-10T09:52:48;17.40;99.90
16485;DHT22;8353;47.856;12.344;2023-05-10T09:55:41;17.40;99.90
16485;DHT22;8353;47.856;12.344;2023-05-10T09:58:37;17.30;99.90
16485;DHT22;8353;47.856;12.344;2023-05-10T10:01:25;17.20;99.90
16485;DHT22;8353;47.856;12.344;2023-05-10T10:04:12;17.20;99.90
16485;DHT22;8353;47.856;12.344;2023-05-10T10:07:04;17.30;99.90
16485;DHT22;8353;47.856;12.344;2023-05-10T10:09:51;17.40;99.90
16485;DHT22;8353;47.856;12.344;2023-05-10T10:12:39;17.50;99.90
16485;DHT22;8353;47.856;12.344;2023-05-10T10:15:28;17.20;99.90
16485;DHT22;8353;47.856;12.344;2023-05-10T10:18:17;17.00;99.90
16485;DHT22;8353;47.856;12.344;2023-05-10T10:21:09;17.20;99.90
16485;DHT22;8353;47.856;12.344;2023-05-10T10:23:56;17.10;99.90
16485;DHT22;8353;47.856;12.344;2023-05-10T10:26:49;17.00;99.90
16485;DHT22;8353;47.856;12.344;2023-05-10T10:29:41;16.90;99.90
16485;DHT22;8353;47.856;12.344;2023-05-10T10:33:01;16.80;99.90
16485;DHT22;8353;47.856;12.344;2023-05-10T10:35:48;16.90;99.90
16485;DHT22;8353;47.856;12.344;2023-05-10T10:41:50;16.90;99.90
16485;DHT22;8353;47.856;12.344;2023-05-10T10:44:37;16.60;99.90
16485;DHT22;8353;47.856;12.344;2023-05-10T10:47:24;16.40;99.90
16485;DHT22;8353;47.856;12.344;2023-05-10T10:50:16;16.40;99.90
16485;DHT22;8353;47.856;12.344;2023-05-10T10:53:10;16.40;99.90
16485;DHT22;8353;47.856;12.344;2023-05-10T10:56:08;16.60;99.90
16485;DHT22;8353;47.856;12.344;2023-05-10T10:58:59;16.70;99.90
16485;DHT22;8353;47.856;12.344;2023-05-10T11:01:51;16.70;99.90
16485;DHT22;8353;47.856;12.344;2023-05-10T11:04:42;16.60;99.90
16485;DHT22;8353;47.856;12.344;2023-05-10T11:07:51;16.70;99.90
16485;DHT22;8353;47.856;12.344;2023-05-10T11:10:38;16.80;99.90
16485;DHT22;8353;47.856;12.344;2023-05-10T11:13:30;16.80;99.90
16485;DHT22;8353;47.856;12.344;2023-05-10T11:16:19;16.60;99.90
16485;DHT22;8353;47.856;12.344;2023-05-10T11:19:07;16.70;99.90
16485;DHT22;8353;47.856;12.344;2023-05-10T11:22:12;16.80;99.90
16485;DHT22;8353;47.856;12.344;2023-05-10T11:25:01;17.00;99.90
16485;DHT22;8353;47.856;12.344;2023-05-10T11:27:48;17.20;99.90
16485;DHT22;8353;47.856;12.344;2023-05-10T11:30:35;17.20;99.90
16485;DHT22;8353;47.856;12.344;2023-05-10T11:33:22;17.20;99.90
16485;DHT22;8353;47.856;12.344;2023-05-10T11:36:11;17.30;99.90
16485;DHT22;8353;47.856;12.344;2023-05-10T11:38:58;17.30;99.90
16485;DHT22;8353;47.856;12.344;2023-05-10T11:41:48;17.30;99.90
16485;DHT22;8353;47.856;12.344;2023-05-10T11:44:35;17.30;99.90
16485;DHT22;8353;47.856;12.344;2023-05-10T11:47:26;17.20;99.90
16485;DHT22;8353;47.856;12.344;2023-05-10T11:50:18;17.10;99.90
16485;DHT22;8353;47.856;12.344;2023-05-10T11:53:04;17.20;99.90
16485;DHT22;8353;47.856;12.344;2023-05-10T11:55:51;17.30;99.90
16485;DHT22;8353;47.856;12.344;2023-05-10T11:58:39;17.30;99.90
16485;DHT22;8353;47.856;12.344;2023-05-10T12:01:28;17.40;99.90
16485;DHT22;8353;47.856;12.344;2023-05-10T12:04:15;17.40;99.90
16485;DHT22;8353;47.856;12.344;2023-05-10T12:07:02;17.30;99.90
16485;DHT22;8353;47.856;12.344;2023-05-10T12:10:06;17.40;99.90
16485;DHT22;8353;47.856;12.344;2023-05-10T12:12:53;17.40;99.90
16485;DHT22;8353;47.856;12.344;2023-05-10T12:15:41;17.40;99.90
16485;DHT22;8353;47.856;12.344;2023-05-10T12:18:29;17.50;99.90
16485;DHT22;8353;47.856;12.344;2023-05-10T12:21:15;17.60;99.90
16485;DHT22;8353;47.856;12.344;2023-05-10T12:24:03;17.80;99.90
16485;DHT22;8353;47.856;12.344;2023-05-10T12:26:50;17.60;99.90
16485;DHT22;8353;47.856;12.344;2023-05-10T12:29:41;17.60;99.90
16485;DHT22;8353;47.856;12.344;2023-05-10T12:32:40;17.50;99.90
16485;DHT22;8353;47.856;12.344;2023-05-10T12:35:30;17.50;99.90
16485;DHT22;8353;47.856;12.344;2023-05-10T12:38:27;17.50;99.90
16485;DHT22;8353;47.856;12.344;2023-05-10T12:41:17;17.40;99.90
16485;DHT22;8353;47.856;12.344;2023-05-10T12:44:04;17.30;99.90
16485;DHT22;8353;47.856;12.344;2023-05-10T12:46:51;17.30;99.90
16485;DHT22;8353;47.856;12.344;2023-05-10T12:49:39;17.40;99.90
16485;DHT22;8353;47.856;12.344;2023-05-10T12:52:25;17.40;99.90
16485;DHT22;8353;47.856;12.344;2023-05-10T12:55:12;17.60;99.90
16485;DHT22;8353;47.856;12.344;2023-05-10T12:57:59;17.50;99.90
16485;DHT22;8353;47.856;12.344;2023-05-10T13:00:46;17.50;99.90
16485;DHT22;8353;47.856;12.344;2023-05-10T13:03:33;17.50;99.90
16485;DHT22;8353;47.856;12.344;2023-05-10T13:06:21;17.40;99.90
16485;DHT22;8353;47.856;12.344;2023-05-10T13:09:08;17.40;99.90
16485;DHT22;8353;47.856;12.344;2023-05-10T13:11:55;17.40;99.90
16485;DHT22;8353;47.856;12.344;2023-05-10T13:14:41;17.30;99.90
16485;DHT22;8353;47.856;12.344;2023-05-10T13:17:31;17.20;99.90
16485;DHT22;8353;47.856;12.344;2023-05-10T13:20:18;17.10;99.90
16485;DHT22;8353;47.856;12.344;2023-05-10T13:23:06;16.80;99.90
16485;DHT22;8353;47.856;12.344;2023-05-10T13:25:53;16.70;99.90
16485;DHT22;8353;47.856;12.344;2023-05-10T13:28:40;16.60;99.90
16485;DHT22;8353;47.856;12.344;2023-05-10T13:31:26;16.50;99.90
16485;DHT22;8353;47.856;12.344;2023-05-10T13:34:13;16.50;99.90
16485;DHT22;8353;47.856;12.344;2023-05-10T13:37:02;16.60;99.90
16485;DHT22;8353;47.856;12.344;2023-05-10T13:39:50;16.60;99.90
16485;DHT22;8353;47.856;12.344;2023-05-10T13:42:38;16.60;99.90
16485;DHT22;8353;47.856;12.344;2023-05-10T13:45:25;16.50;99.90
16485;DHT22;8353;47.856;12.344;2023-05-10T13:48:13;16.40;99.90
16485;DHT22;8353;47.856;12.344;2023-05-10T13:51:01;16.40;99.90
16485;DHT22;8353;47.856;12.344;2023-05-10T13:53:48;16.30;99.90
16485;DHT22;8353;47.856;12.344;2023-05-10T13:56:36;16.40;99.90
16485;DHT22;8353;47.856;12.344;2023-05-10T13:59:23;16.30;99.90
16485;DHT22;8353;47.856;12.344;2023-05-10T14:02:10;16.00;99.90
16485;DHT22;8353;47.856;12.344;2023-05-10T14:04:58;16.20;99.90
16485;DHT22;8353;47.856;12.344;2023-05-10T14:07:45;16.20;99.90
16485;DHT22;8353;47.856;12.344;2023-05-10T14:10:32;16.20;99.90
16485;DHT22;8353;47.856;12.344;2023-05-10T14:13:20;16.20;99.90
16485;DHT22;8353;47.856;12.344;2023-05-10T14:16:07;16.30;99.90
16485;DHT22;8353;47.856;12.344;2023-05-10T14:18:54;16.50;99.90
16485;DHT22;8353;47.856;12.344;2023-05-10T14:21:41;16.50;99.90
16485;DHT22;8353;47.856;12.344;2023-05-10T14:24:28;16.60;99.90
16485;DHT22;8353;47.856;12.344;2023-05-10T14:27:16;16.60;99.90
16485;DHT22;8353;47.856;12.344;2023-05-10T14:30:06;16.50;99.90
16485;DHT22;8353;47.856;12.344;2023-05-10T14:32:53;16.40;99.90
16485;DHT22;8353;47.856;12.344;2023-05-10T14:35:40;16.40;99.90
16485;DHT22;8353;47.856;12.344;2023-05-10T14:38:26;16.50;99.90
16485;DHT22;8353;47.856;12.344;2023-05-10T14:41:13;16.60;99.90
16485;DHT22;8353;47.856;12.344;2023-05-10T14:44:01;16.70;99.90
16485;DHT22;8353;47.856;12.344;2023-05-10T14:46:50;16.80;99.90
16485;DHT22;8353;47.856;12.344;2023-05-10T14:49:37;16.80;99.90
16485;DHT22;8353;47.856;12.344;2023-05-10T14:52:24;16.70;99.90
16485;DHT22;8353;47.856;12.344;2023-05-10T14:55:11;16.70;99.90
16485;DHT22;8353;47.856;12.344;2023-05-10T14:57:58;16.80;99.90
16485;DHT22;8353;47.856;12.344;2023-05-10T15:00:45;16.80;99.90
16485;DHT22;8353;47.856;12.344;2023-05-10T15:03:33;16.70;99.90
16485;DHT22;8353;47.856;12.344;2023-05-10T15:06:23;16.60;99.90
16485;DHT22;8353;47.856;12.344;2023-05-10T15:09:11;16.50;99.90
16485;DHT22;8353;47.856;12.344;2023-05-10T15:11:58;16.40;99.90
16485;DHT22;8353;47.856;12.344;2023-05-10T15:14:44;16.30;99.90
16485;DHT22;8353;47.856;12.344;2023-05-10T15:17:31;16.30;99.90
16485;DHT22;8353;47.856;12.344;2023-05-10T15:20:19;16.20;99.90
16485;DHT22;8353;47.856;12.344;2023-05-10T15:23:06;16.10;99.90
16485;DHT22;8353;47.856;12.344;2023-05-10T15:25:53;16.20;99.90
16485;DHT22;8353;47.856;12.344;2023-05-10T15:28:44;16.00;99.90
16485;DHT22;8353;47.856;12.344;2023-05-10T15:31:31;16.00;99.90
16485;DHT22;8353;47.856;12.344;2023-05-10T15:34:20;16.10;99.90
16485;DHT22;8353;47.856;12.344;2023-05-10T15:37:08;16.20;99.90
16485;DHT22;8353;47.856;12.344;2023-05-10T15:39:55;16.30;99.90
16485;DHT22;8353;47.856;12.344;2023-05-10T15:42:47;16.40;99.90
16485;DHT22;8353;47.856;12.344;2023-05-10T15:45:34;16.20;99.90
16485;DHT22;8353;47.856;12.344;2023-05-10T15:48:21;16.30;99.90
16485;DHT22;8353;47.856;12.344;2023-05-10T15:51:08;16.30;99.90
16485;DHT22;8353;47.856;12.344;2023-05-10T15:53:56;16.40;99.90
16485;DHT22;8353;47.856;12.344;2023-05-10T15:56:43;16.30;99.90
16485;DHT22;8353;47.856;12.344;2023-05-10T15:59:30;16.30;99.90
16485;DHT22;8353;47.856;12.344;2023-05-10T16:02:16;16.30;99.90
16485;DHT22;8353;47.856;12.344;2023-05-10T16:05:04;16.30;99.90
16485;DHT22;8353;47.856;12.344;2023-05-10T16:07:51;16.40;99.90
16485;DHT22;8353;47.856;12.344;2023-05-10T16:10:39;16.30;99.90
16485;DHT22;8353;47.856;12.344;2023-05-10T16:13:28;16.20;99.90
16485;DHT22;8353;47.856;12.344;2023-05-10T16:16:17;16.10;99.90
16485;DHT22;8353;47.856;12.344;2023-05-10T16:19:04;16.10;99.90
16485;DHT22;8353;47.856;12.344;2023-05-10T16:21:50;16.10;99.90
16485;DHT22;8353;47.856;12.344;2023-05-10T16:24:37;15.90;99.90
16485;DHT22;8353;47.856;12.344;2023-05-10T16:27:25;15.90;99.90
16485;DHT22;8353;47.856;12.344;2023-05-10T16:30:14;15.60;99.90
16485;DHT22;8353;47.856;12.344;2023-05-10T16:33:01;15.60;99.90
16485;DHT22;8353;47.856;12.344;2023-05-10T16:35:48;15.60;99.90
16485;DHT22;8353;47.856;12.344;2023-05-10T16:38:37;15.60;99.90
16485;DHT22;8353;47.856;12.344;2023-05-10T16:41:23;15.60;99.90
16485;DHT22;8353;47.856;12.344;2023-05-10T16:44:12;15.50;99.90
16485;DHT22;8353;47.856;12.344;2023-05-10T16:46:59;15.30;99.90
16485;DHT22;8353;47.856;12.344;2023-05-10T16:49:45;15.30;99.90
16485;DHT22;8353;47.856;12.344;2023-05-10T16:52:33;15.30;99.90
16485;DHT22;8353;47.856;12.344;2023-05-10T16:55:20;15.50;99.90
16485;DHT22;8353;47.856;12.344;2023-05-10T16:58:07;15.40;99.90
16485;DHT22;8353;47.856;12.344;2023-05-10T17:00:55;15.40;99.90
16485;DHT22;8353;47.856;12.344;2023-05-10T17:03:42;15.30;99.90
16485;DHT22;8353;47.856;12.344;2023-05-10T17:06:30;15.20;99.90
16485;DHT22;8353;47.856;12.344;2023-05-10T17:09:17;15.10;99.90
16485;DHT22;8353;47.856;12.344;2023-05-10T17:12:04;15.00;99.90
16485;DHT22;8353;47.856;12.344;2023-05-10T17:14:51;15.10;99.90
16485;DHT22;8353;47.856;12.344;2023-05-10T17:17:45;15.00;99.90
16485;DHT22;8353;47.856;12.344;2023-05-10T17:20:32;14.90;99.90
16485;DHT22;8353;47.856;12.344;2023-05-10T17:23:19;15.00;99.90
16485;DHT22;8353;47.856;12.344;2023-05-10T17:26:07;14.70;99.90
16485;DHT22;8353;47.856;12.344;2023-05-10T17:28:54;14.50;99.90
16485;DHT22;8353;47.856;12.344;2023-05-10T17:31:41;14.40;99.90
16485;DHT22;8353;47.856;12.344;2023-05-10T17:34:29;14.30;99.90
16485;DHT22;8353;47.856;12.344;2023-05-10T17:37:16;14.30;99.90
16485;DHT22;8353;47.856;12.344;2023-05-10T17:40:04;14.20;99.90
16485;DHT22;8353;47.856;12.344;2023-05-10T17:42:52;14.10;99.90
16485;DHT22;8353;47.856;12.344;2023-05-10T17:45:40;14.10;99.90
16485;DHT22;8353;47.856;12.344;2023-05-10T17:48:28;14.10;99.90